»·PEaware :: N448RA KSBD-KBFL

N448RA :: KSBD-KBFL

FLIGHT INFORMATION

Flight Status: Arrived
Operator: Privately registered:
United States
More flights under this callsign
Pilot: Scott M. (16181)
Aircraft: Unknown
(KODI)
More flights by this aircraft type
Origin: KSBD San Bernardino Intl
United States
Destination: KBFL Meadows
United States
More flights between these airports :: More routes between these airports
Route:
File this flight plan on PilotEdge
Remarks:
Altitude:
(Current/Filed)
8,500ft
Speed:
(Current/Filed)
125kts
Departed: 24-Sep-17 06:16 PM
Arrived: 24-Sep-17 07:24 PM
Distance/Time
Traveled:
120nm/1:08
Distance/Time
To Go:
Arrived

Flight Plot

Page will automatically refresh every two minutes.


Map Options




Map Legend


Flown Route
Filed Route
Departure Airport
Arrival Airport
Navaid (VOR, NDB)
Fix

Horizontal Profiles

Position Reports

Time Latitude Longitude Heading Altitude Ground
Speed
24-Sep-17 18:08 34.102166 -117.224720 93 1162ft 0kts
24-Sep-17 18:09 34.102166 -117.224720 93 1162ft 0kts
24-Sep-17 18:10 34.102166 -117.224720 93 1162ft 0kts
24-Sep-17 18:11 34.102166 -117.224720 93 1162ft 0kts
24-Sep-17 18:12 34.102166 -117.224721 93 1162ft 0kts
24-Sep-17 18:13 34.102250 -117.224809 161 1162ft 0kts
24-Sep-17 18:14 34.102090 -117.224846 195 1161ft 7kts
24-Sep-17 18:15 34.100773 -117.224844 199 1161ft 1kts
24-Sep-17 18:16 34.099504 -117.226200 119 1161ft 16kts
24-Sep-17 18:17 34.100428 -117.223788 70 1161ft 16kts
24-Sep-17 18:18 34.101318 -117.220574 86 1162ft 18kts
24-Sep-17 18:19 34.100816 -117.219773 159 1161ft 0kts
24-Sep-17 18:20 34.099469 -117.220903 248 1162ft 58kts
24-Sep-17 18:21 34.092413 -117.244135 253 1763ft 140kts
24-Sep-17 18:22 34.105349 -117.268217 320 2771ft 146kts
24-Sep-17 18:23 34.132678 -117.297560 321 3816ft 157kts
24-Sep-17 18:24 34.161604 -117.328710 321 4836ft 146kts
24-Sep-17 18:25 34.188325 -117.354537 319 5829ft 136kts
24-Sep-17 18:26 34.212770 -117.381202 321 6835ft 139kts
24-Sep-17 18:27 34.235375 -117.405714 322 7727ft 140kts
24-Sep-17 18:28 34.260913 -117.423860 335 8506ft 143kts
24-Sep-17 18:29 34.291434 -117.442575 334 8498ft 156kts
24-Sep-17 18:30 34.321412 -117.461113 335 8497ft 144kts
24-Sep-17 18:31 34.349742 -117.478632 336 8499ft 137kts
24-Sep-17 18:32 34.374619 -117.499886 319 8501ft 138kts
24-Sep-17 18:33 34.394767 -117.527056 312 8494ft 139kts
24-Sep-17 18:34 34.412986 -117.556990 308 8495ft 139kts
24-Sep-17 18:35 34.430200 -117.587535 306 8494ft 142kts
24-Sep-17 18:36 34.447518 -117.619293 306 8494ft 142kts
24-Sep-17 18:37 34.464104 -117.650090 305 8495ft 143kts
24-Sep-17 18:38 34.479797 -117.679550 305 8494ft 143kts
24-Sep-17 18:39 34.496273 -117.710525 305 8494ft 143kts
24-Sep-17 18:40 34.512773 -117.741534 306 8493ft 143kts
24-Sep-17 18:41 34.529681 -117.773282 305 8493ft 143kts
24-Sep-17 18:42 34.546999 -117.805949 305 8494ft 143kts
24-Sep-17 18:43 34.564036 -117.838137 306 8494ft 143kts
24-Sep-17 18:44 34.581367 -117.870808 305 8494ft 142kts
24-Sep-17 18:45 34.598332 -117.902903 305 8494ft 142kts
24-Sep-17 18:46 34.615258 -117.934930 306 8495ft 142kts
24-Sep-17 18:47 34.632285 -117.967130 304 8493ft 143kts
24-Sep-17 18:48 34.649393 -117.999507 305 8494ft 143kts
24-Sep-17 18:49 34.667061 -118.033012 305 8494ft 143kts
24-Sep-17 18:50 34.683361 -118.063993 305 8495ft 143kts
24-Sep-17 18:51 34.696624 -118.089234 306 8493ft 143kts
24-Sep-17 18:52 34.716029 -118.126090 305 8494ft 142kts
24-Sep-17 18:53 34.732241 -118.156977 304 8494ft 143kts
24-Sep-17 18:54 34.746653 -118.184416 304 8493ft 143kts
24-Sep-17 18:55 34.766490 -118.222116 304 8493ft 143kts
24-Sep-17 18:56 34.783384 -118.254270 303 8494ft 143kts
24-Sep-17 18:57 34.798826 -118.280270 315 8495ft 141kts
24-Sep-17 18:58 34.822895 -118.309951 318 8494ft 141kts
24-Sep-17 18:59 34.847450 -118.339888 317 8493ft 141kts
24-Sep-17 19:00 34.870459 -118.367842 319 8495ft 141kts
24-Sep-17 19:01 34.891416 -118.393224 317 8493ft 142kts
24-Sep-17 19:02 34.913481 -118.420017 316 8494ft 142kts
24-Sep-17 19:03 34.935453 -118.446659 317 8493ft 141kts
24-Sep-17 19:04 34.957264 -118.473131 318 8493ft 141kts
24-Sep-17 19:05 34.979181 -118.499690 317 8493ft 141kts
24-Sep-17 19:06 35.000706 -118.525776 316 8546ft 140kts
24-Sep-17 19:07 35.028481 -118.545086 342 8546ft 138kts
24-Sep-17 19:08 35.054754 -118.566236 290 8546ft 144kts
24-Sep-17 19:09 35.069092 -118.598869 307 8545ft 142kts
24-Sep-17 19:10 35.087973 -118.628184 313 8546ft 142kts
24-Sep-17 19:11 35.104851 -118.650979 316 8546ft 142kts
24-Sep-17 19:12 35.129463 -118.682381 317 7730ft 141kts
24-Sep-17 19:13 35.153695 -118.712425 316 6769ft 133kts
24-Sep-17 19:14 35.177895 -118.742130 317 5813ft 134kts
24-Sep-17 19:15 35.202018 -118.771728 318 4860ft 134kts
24-Sep-17 19:16 35.225505 -118.800516 318 4549ft 129kts
24-Sep-17 19:17 35.248712 -118.829592 316 4541ft 127kts
24-Sep-17 19:18 35.269928 -118.859360 313 4284ft 130kts
24-Sep-17 19:19 35.292343 -118.890277 314 3657ft 129kts
24-Sep-17 19:20 35.313624 -118.917853 316 2866ft 120kts
24-Sep-17 19:21 35.331450 -118.939337 321 2319ft 83kts
24-Sep-17 19:22 35.347220 -118.955205 323 1953ft 84kts
24-Sep-17 19:23 35.363099 -118.972413 325 1719ft 78kts
24-Sep-17 19:24 35.378086 -118.989469 327 1613ft 81kts
24-Sep-17 19:25 35.392707 -119.007874 321 1581ft 78kts
24-Sep-17 19:26 35.407434 -119.025209 320 1278ft 83kts
24-Sep-17 19:27 35.422994 -119.043324 316 780ft 79kts
24-Sep-17 19:28 35.435383 -119.057944 327 510ft 13kts
24-Sep-17 19:29 35.435967 -119.056586 133 510ft 20kts
24-Sep-17 19:30 35.431014 -119.050564 133 510ft 24kts
24-Sep-17 19:31 35.431527 -119.048464 343 510ft 0kts

Navigation Log

Ident Type
1. KSBD Airport
2. KBFL Airport